sensor_id;sensor_type;location;lat;lon;timestamp;temperature;humidity
24338;DHT22;12457;50.832;4.346;2024-02-26T00:00:39;7.00;99.90
24338;DHT22;12457;50.832;4.346;2024-02-26T00:03:05;6.90;99.90
24338;DHT22;12457;50.832;4.346;2024-02-26T00:05:30;6.90;99.90
24338;DHT22;12457;50.832;4.346;2024-02-26T00:07:58;6.90;99.90
24338;DHT22;12457;50.832;4.346;2024-02-26T00:10:23;6.90;99.90
24338;DHT22;12457;50.832;4.346;2024-02-26T00:12:49;6.90;99.90
24338;DHT22;12457;50.832;4.346;2024-02-26T00:15:15;6.90;99.90
24338;DHT22;12457;50.832;4.346;2024-02-26T00:17:41;6.90;99.90
24338;DHT22;12457;50.832;4.346;2024-02-26T00:20:07;6.90;99.90
24338;DHT22;12457;50.832;4.346;2024-02-26T00:22:35;6.90;99.90
24338;DHT22;12457;50.832;4.346;2024-02-26T00:25:01;6.80;99.90
24338;DHT22;12457;50.832;4.346;2024-02-26T00:27:27;6.80;99.90
24338;DHT22;12457;50.832;4.346;2024-02-26T00:29:52;6.80;99.90
24338;DHT22;12457;50.832;4.346;2024-02-26T00:32:52;6.80;99.90
24338;DHT22;12457;50.832;4.346;2024-02-26T00:35:18;6.90;99.90
24338;DHT22;12457;50.832;4.346;2024-02-26T00:37:46;6.90;99.90
24338;DHT22;12457;50.832;4.346;2024-02-26T00:40:11;6.90;99.90
24338;DHT22;12457;50.832;4.346;2024-02-26T00:42:38;6.80;99.90
24338;DHT22;12457;50.832;4.346;2024-02-26T00:45:04;6.80;99.90
24338;DHT22;12457;50.832;4.346;2024-02-26T00:47:30;6.80;99.90
24338;DHT22;12457;50.832;4.346;2024-02-26T00:49:56;6.80;99.90
24338;DHT22;12457;50.832;4.346;2024-02-26T00:52:22;6.80;99.90
24338;DHT22;12457;50.832;4.346;2024-02-26T00:54:47;6.80;99.90
24338;DHT22;12457;50.832;4.346;2024-02-26T00:57:13;6.80;99.90
24338;DHT22;12457;50.832;4.346;2024-02-26T00:59:39;6.80;99.90
24338;DHT22;12457;50.832;4.346;2024-02-26T01:02:04;6.80;99.90
24338;DHT22;12457;50.832;4.346;2024-02-26T01:04:32;6.70;99.90
24338;DHT22;12457;50.832;4.346;2024-02-26T01:06:59;6.80;99.90
24338;DHT22;12457;50.832;4.346;2024-02-26T01:09:25;6.80;99.90
24338;DHT22;12457;50.832;4.346;2024-02-26T01:11:50;6.70;99.90
24338;DHT22;12457;50.832;4.346;2024-02-26T01:14:16;6.80;99.90
24338;DHT22;12457;50.832;4.346;2024-02-26T01:16:42;6.80;99.90
24338;DHT22;12457;50.832;4.346;2024-02-26T01:19:07;6.80;99.90
24338;DHT22;12457;50.832;4.346;2024-02-26T01:21:33;6.80;99.90
24338;DHT22;12457;50.832;4.346;2024-02-26T01:23:59;6.80;99.90
24338;DHT22;12457;50.832;4.346;2024-02-26T01:26:24;6.70;99.90
24338;DHT22;12457;50.832;4.346;2024-02-26T01:28:50;6.80;99.90
24338;DHT22;12457;50.832;4.346;2024-02-26T01:31:16;6.70;99.90
24338;DHT22;12457;50.832;4.346;2024-02-26T01:33:42;6.80;99.90
24338;DHT22;12457;50.832;4.346;2024-02-26T01:36:07;6.70;99.90
24338;DHT22;12457;50.832;4.346;2024-02-26T01:38:33;6.70;99.90
24338;DHT22;12457;50.832;4.346;2024-02-26T01:40:59;6.70;99.90
24338;DHT22;12457;50.832;4.346;2024-02-26T01:43:24;6.70;99.90
24338;DHT22;12457;50.832;4.346;2024-02-26T01:45:50;6.70;99.90
24338;DHT22;12457;50.832;4.346;2024-02-26T01:48:16;6.70;99.90
24338;DHT22;12457;50.832;4.346;2024-02-26T01:50:41;6.70;99.90
24338;DHT22;12457;50.832;4.346;2024-02-26T01:53:08;6.70;99.90
24338;DHT22;12457;50.832;4.346;2024-02-26T01:55:34;6.70;99.90
24338;DHT22;12457;50.832;4.346;2024-02-26T01:58:01;6.70;99.90
24338;DHT22;12457;50.832;4.346;2024-02-26T02:00:26;6.60;99.90
24338;DHT22;12457;50.832;4.346;2024-02-26T02:02:53;6.60;99.90
24338;DHT22;12457;50.832;4.346;2024-02-26T02:05:20;6.70;99.90
24338;DHT22;12457;50.832;4.346;2024-02-26T02:07:47;6.60;99.90
24338;DHT22;12457;50.832;4.346;2024-02-26T02:10:15;6.60;99.90
24338;DHT22;12457;50.832;4.346;2024-02-26T02:12:41;6.60;99.90
24338;DHT22;12457;50.832;4.346;2024-02-26T02:15:07;6.70;99.90
24338;DHT22;12457;50.832;4.346;2024-02-26T02:17:33;6.60;99.90
24338;DHT22;12457;50.832;4.346;2024-02-26T02:19:59;6.60;99.90
24338;DHT22;12457;50.832;4.346;2024-02-26T02:22:25;6.70;99.90
24338;DHT22;12457;50.832;4.346;2024-02-26T02:24:52;6.60;99.90
24338;DHT22;12457;50.832;4.346;2024-02-26T02:27:19;6.60;99.90
24338;DHT22;12457;50.832;4.346;2024-02-26T02:29:45;6.60;99.90
24338;DHT22;12457;50.832;4.346;2024-02-26T02:32:11;6.60;99.90
24338;DHT22;12457;50.832;4.346;2024-02-26T02:34:37;6.60;99.90
24338;DHT22;12457;50.832;4.346;2024-02-26T02:37:03;6.60;99.90
24338;DHT22;12457;50.832;4.346;2024-02-26T02:39:28;6.60;99.90
24338;DHT22;12457;50.832;4.346;2024-02-26T02:41:54;6.60;99.90
24338;DHT22;12457;50.832;4.346;2024-02-26T02:44:19;6.60;99.90
24338;DHT22;12457;50.832;4.346;2024-02-26T02:50:07;6.70;99.90
24338;DHT22;12457;50.832;4.346;2024-02-26T02:52:34;6.70;99.90
24338;DHT22;12457;50.832;4.346;2024-02-26T02:55:00;6.70;99.90
24338;DHT22;12457;50.832;4.346;2024-02-26T02:57:26;6.60;99.90
24338;DHT22;12457;50.832;4.346;2024-02-26T02:59:52;6.60;99.90
24338;DHT22;12457;50.832;4.346;2024-02-26T03:02:17;6.60;99.90
24338;DHT22;12457;50.832;4.346;2024-02-26T03:04:43;6.60;99.90
24338;DHT22;12457;50.832;4.346;2024-02-26T03:07:09;6.60;99.90
24338;DHT22;12457;50.832;4.346;2024-02-26T03:09:34;6.60;99.90
24338;DHT22;12457;50.832;4.346;2024-02-26T03:12:00;6.60;99.90
24338;DHT22;12457;50.832;4.346;2024-02-26T03:14:26;6.60;99.90
24338;DHT22;12457;50.832;4.346;2024-02-26T03:16:55;6.60;99.90
24338;DHT22;12457;50.832;4.346;2024-02-26T03:19:20;6.70;99.90
24338;DHT22;12457;50.832;4.346;2024-02-26T03:21:46;6.60;99.90
24338;DHT22;12457;50.832;4.346;2024-02-26T03:24:12;6.60;99.90
24338;DHT22;12457;50.832;4.346;2024-02-26T03:26:38;6.60;99.90
24338;DHT22;12457;50.832;4.346;2024-02-26T03:29:04;6.70;99.90
24338;DHT22;12457;50.832;4.346;2024-02-26T03:31:38;6.60;99.90
24338;DHT22;12457;50.832;4.346;2024-02-26T03:34:04;6.60;99.90
24338;DHT22;12457;50.832;4.346;2024-02-26T03:36:30;6.60;99.90
24338;DHT22;12457;50.832;4.346;2024-02-26T03:38:55;6.60;99.90
24338;DHT22;12457;50.832;4.346;2024-02-26T03:41:21;6.50;99.90
24338;DHT22;12457;50.832;4.346;2024-02-26T03:43:47;6.60;99.90
24338;DHT22;12457;50.832;4.346;2024-02-26T03:46:13;6.50;99.90
24338;DHT22;12457;50.832;4.346;2024-02-26T03:48:42;6.50;99.90
24338;DHT22;12457;50.832;4.346;2024-02-26T03:51:09;6.40;99.90
24338;DHT22;12457;50.832;4.346;2024-02-26T03:53:37;6.50;99.90
24338;DHT22;12457;50.832;4.346;2024-02-26T03:56:04;6.50;99.90
24338;DHT22;12457;50.832;4.346;2024-02-26T03:58:30;6.50;99.90
24338;DHT22;12457;50.832;4.346;2024-02-26T04:00:56;6.50;99.90
24338;DHT22;12457;50.832;4.346;2024-02-26T04:03:37;6.50;99.90
24338;DHT22;12457;50.832;4.346;2024-02-26T04:06:03;6.50;99.90
24338;DHT22;12457;50.832;4.346;2024-02-26T04:08:30;6.50;99.90
24338;DHT22;12457;50.832;4.346;2024-02-26T04:10:57;6.50;99.90
24338;DHT22;12457;50.832;4.346;2024-02-26T04:13:23;6.40;99.90
24338;DHT22;12457;50.832;4.346;2024-02-26T04:15:49;6.40;99.90
24338;DHT22;12457;50.832;4.346;2024-02-26T04:18:42;6.50;99.90
24338;DHT22;12457;50.832;4.346;2024-02-26T04:21:08;6.40;99.90
24338;DHT22;12457;50.832;4.346;2024-02-26T04:23:33;6.40;99.90
24338;DHT22;12457;50.832;4.346;2024-02-26T04:25:59;6.40;99.90
24338;DHT22;12457;50.832;4.346;2024-02-26T04:28:25;6.40;99.90
24338;DHT22;12457;50.832;4.346;2024-02-26T04:30:51;6.40;99.90
24338;DHT22;12457;50.832;4.346;2024-02-26T04:33:26;6.40;99.90
24338;DHT22;12457;50.832;4.346;2024-02-26T04:35:52;6.40;99.90
24338;DHT22;12457;50.832;4.346;2024-02-26T04:38:18;6.40;99.90
24338;DHT22;12457;50.832;4.346;2024-02-26T04:40:43;6.40;99.90
24338;DHT22;12457;50.832;4.346;2024-02-26T04:43:09;6.30;99.90
24338;DHT22;12457;50.832;4.346;2024-02-26T04:45:34;6.30;99.90
24338;DHT22;12457;50.832;4.346;2024-02-26T04:48:06;6.30;99.90
24338;DHT22;12457;50.832;4.346;2024-02-26T04:50:31;6.30;99.90
24338;DHT22;12457;50.832;4.346;2024-02-26T04:52:57;6.30;99.90
24338;DHT22;12457;50.832;4.346;2024-02-26T04:55:23;6.30;99.90
24338;DHT22;12457;50.832;4.346;2024-02-26T04:57:48;6.30;99.90
24338;DHT22;12457;50.832;4.346;2024-02-26T05:00:14;6.30;99.90
24338;DHT22;12457;50.832;4.346;2024-02-26T05:02:45;6.30;99.90
24338;DHT22;12457;50.832;4.346;2024-02-26T05:05:11;6.30;99.90
24338;DHT22;12457;50.832;4.346;2024-02-26T05:07:41;6.30;99.90
24338;DHT22;12457;50.832;4.346;2024-02-26T05:10:10;6.20;99.90
24338;DHT22;12457;50.832;4.346;2024-02-26T05:12:36;6.20;99.90
24338;DHT22;12457;50.832;4.346;2024-02-26T05:15:02;6.30;99.90
24338;DHT22;12457;50.832;4.346;2024-02-26T05:17:28;6.30;99.90
24338;DHT22;12457;50.832;4.346;2024-02-26T05:19:54;6.40;99.90
24338;DHT22;12457;50.832;4.346;2024-02-26T05:22:20;6.30;99.90
24338;DHT22;12457;50.832;4.346;2024-02-26T05:24:45;6.20;99.90
24338;DHT22;12457;50.832;4.346;2024-02-26T05:27:11;6.30;99.90
24338;DHT22;12457;50.832;4.346;2024-02-26T05:29:37;6.20;99.90
24338;DHT22;12457;50.832;4.346;2024-02-26T05:32:05;6.20;99.90
24338;DHT22;12457;50.832;4.346;2024-02-26T05:34:34;6.20;99.90
24338;DHT22;12457;50.832;4.346;2024-02-26T05:36:59;6.30;99.90
24338;DHT22;12457;50.832;4.346;2024-02-26T05:39:25;6.30;99.90
24338;DHT22;12457;50.832;4.346;2024-02-26T05:41:50;6.30;99.90
24338;DHT22;12457;50.832;4.346;2024-02-26T05:44:16;6.20;99.90
24338;DHT22;12457;50.832;4.346;2024-02-26T05:46:42;6.20;99.90
24338;DHT22;12457;50.832;4.346;2024-02-26T05:49:07;6.20;99.90
24338;DHT22;12457;50.832;4.346;2024-02-26T05:51:33;6.20;99.90
24338;DHT22;12457;50.832;4.346;2024-02-26T05:53:59;6.20;99.90
24338;DHT22;12457;50.832;4.346;2024-02-26T05:56:25;6.20;99.90
24338;DHT22;12457;50.832;4.346;2024-02-26T05:58:50;6.20;99.90
24338;DHT22;12457;50.832;4.346;2024-02-26T06:01:17;6.20;99.90
24338;DHT22;12457;50.832;4.346;2024-02-26T06:03:48;6.20;99.90
24338;DHT22;12457;50.832;4.346;2024-02-26T06:06:14;6.20;99.90
24338;DHT22;12457;50.832;4.346;2024-02-26T06:08:42;6.30;99.90
24338;DHT22;12457;50.832;4.346;2024-02-26T06:11:08;6.20;99.90
24338;DHT22;12457;50.832;4.346;2024-02-26T06:13:34;6.30;99.90
24338;DHT22;12457;50.832;4.346;2024-02-26T06:16:00;6.30;99.90
24338;DHT22;12457;50.832;4.346;2024-02-26T06:18:26;6.30;99.90
24338;DHT22;12457;50.832;4.346;2024-02-26T06:20:51;6.30;99.90
24338;DHT22;12457;50.832;4.346;2024-02-26T06:23:17;6.20;99.90
24338;DHT22;12457;50.832;4.346;2024-02-26T06:25:43;6.30;99.90
24338;DHT22;12457;50.832;4.346;2024-02-26T06:28:08;6.30;99.90
24338;DHT22;12457;50.832;4.346;2024-02-26T06:30:34;6.30;99.90
24338;DHT22;12457;50.832;4.346;2024-02-26T06:33:00;6.30;99.90
24338;DHT22;12457;50.832;4.346;2024-02-26T06:35:41;6.20;99.90
24338;DHT22;12457;50.832;4.346;2024-02-26T06:38:07;6.20;99.90
24338;DHT22;12457;50.832;4.346;2024-02-26T06:40:33;6.20;99.90
24338;DHT22;12457;50.832;4.346;2024-02-26T06:42:59;6.20;99.90
24338;DHT22;12457;50.832;4.346;2024-02-26T06:45:24;6.20;99.90
24338;DHT22;12457;50.832;4.346;2024-02-26T06:47:50;6.20;99.90
24338;DHT22;12457;50.832;4.346;2024-02-26T06:50:16;6.20;99.90
24338;DHT22;12457;50.832;4.346;2024-02-26T06:52:44;6.20;99.90
24338;DHT22;12457;50.832;4.346;2024-02-26T06:55:10;6.20;99.90
24338;DHT22;12457;50.832;4.346;2024-02-26T06:57:35;6.20;99.90
24338;DHT22;12457;50.832;4.346;2024-02-26T07:00:01;6.20;99.90
24338;DHT22;12457;50.832;4.346;2024-02-26T07:02:29;6.20;99.90
24338;DHT22;12457;50.832;4.346;2024-02-26T07:04:54;6.20;99.90
24338;DHT22;12457;50.832;4.346;2024-02-26T07:07:21;6.20;99.90
24338;DHT22;12457;50.832;4.346;2024-02-26T07:09:49;6.20;99.90
24338;DHT22;12457;50.832;4.346;2024-02-26T07:12:15;6.10;99.90
24338;DHT22;12457;50.832;4.346;2024-02-26T07:14:41;6.20;99.90
24338;DHT22;12457;50.832;4.346;2024-02-26T07:17:07;6.10;99.90
24338;DHT22;12457;50.832;4.346;2024-02-26T07:19:52;6.20;99.90
24338;DHT22;12457;50.832;4.346;2024-02-26T07:22:18;6.10;99.90
24338;DHT22;12457;50.832;4.346;2024-02-26T07:24:43;6.10;99.90
24338;DHT22;12457;50.832;4.346;2024-02-26T07:27:09;6.10;99.90
24338;DHT22;12457;50.832;4.346;2024-02-26T07:29:35;6.10;99.90
24338;DHT22;12457;50.832;4.346;2024-02-26T07:32:00;6.10;99.90
24338;DHT22;12457;50.832;4.346;2024-02-26T07:34:26;6.10;99.90
24338;DHT22;12457;50.832;4.346;2024-02-26T07:36:55;6.10;99.90
24338;DHT22;12457;50.832;4.346;2024-02-26T07:39:21;6.10;99.90
24338;DHT22;12457;50.832;4.346;2024-02-26T07:41:47;6.10;99.90
24338;DHT22;12457;50.832;4.346;2024-02-26T07:44:15;6.10;99.90
24338;DHT22;12457;50.832;4.346;2024-02-26T07:46:41;6.10;99.90
24338;DHT22;12457;50.832;4.346;2024-02-26T07:49:06;6.00;99.90
24338;DHT22;12457;50.832;4.346;2024-02-26T07:51:33;6.00;99.90
24338;DHT22;12457;50.832;4.346;2024-02-26T07:54:00;6.10;99.90
24338;DHT22;12457;50.832;4.346;2024-02-26T07:56:26;6.00;99.90
24338;DHT22;12457;50.832;4.346;2024-02-26T07:58:51;6.00;99.90
24338;DHT22;12457;50.832;4.346;2024-02-26T08:01:17;6.10;99.90
24338;DHT22;12457;50.832;4.346;2024-02-26T08:03:43;6.10;99.90
24338;DHT22;12457;50.832;4.346;2024-02-26T08:06:09;6.10;99.90
24338;DHT22;12457;50.832;4.346;2024-02-26T08:08:34;6.00;99.90
24338;DHT22;12457;50.832;4.346;2024-02-26T08:11:00;6.00;99.90
24338;DHT22;12457;50.832;4.346;2024-02-26T08:13:26;6.10;99.90
24338;DHT22;12457;50.832;4.346;2024-02-26T08:15:52;6.10;99.90
24338;DHT22;12457;50.832;4.346;2024-02-26T08:18:18;6.10;99.90
24338;DHT22;12457;50.832;4.346;2024-02-26T08:20:44;6.00;99.90
24338;DHT22;12457;50.832;4.346;2024-02-26T08:23:10;6.10;99.90
24338;DHT22;12457;50.832;4.346;2024-02-26T08:25:36;6.10;99.90
24338;DHT22;12457;50.832;4.346;2024-02-26T08:28:01;6.10;99.90
24338;DHT22;12457;50.832;4.346;2024-02-26T08:30:27;6.10;99.90
24338;DHT22;12457;50.832;4.346;2024-02-26T08:32:53;6.10;99.90
24338;DHT22;12457;50.832;4.346;2024-02-26T08:35:19;6.10;99.90
24338;DHT22;12457;50.832;4.346;2024-02-26T08:37:45;6.10;99.90
24338;DHT22;12457;50.832;4.346;2024-02-26T08:40:11;6.10;99.90
24338;DHT22;12457;50.832;4.346;2024-02-26T08:42:37;6.10;99.90
24338;DHT22;12457;50.832;4.346;2024-02-26T08:45:03;6.10;99.90
24338;DHT22;12457;50.832;4.346;2024-02-26T08:47:29;6.10;99.90
24338;DHT22;12457;50.832;4.346;2024-02-26T08:49:54;6.10;99.90
24338;DHT22;12457;50.832;4.346;2024-02-26T08:52:20;6.20;99.90
24338;DHT22;12457;50.832;4.346;2024-02-26T08:54:47;6.10;99.90
24338;DHT22;12457;50.832;4.346;2024-02-26T08:57:13;6.10;99.90
24338;DHT22;12457;50.832;4.346;2024-02-26T08:59:38;6.20;99.90
24338;DHT22;12457;50.832;4.346;2024-02-26T09:02:04;6.10;99.90
24338;DHT22;12457;50.832;4.346;2024-02-26T09:04:30;6.10;99.90
24338;DHT22;12457;50.832;4.346;2024-02-26T09:06:55;6.10;99.90
24338;DHT22;12457;50.832;4.346;2024-02-26T09:09:21;6.20;99.90
24338;DHT22;12457;50.832;4.346;2024-02-26T09:11:48;6.20;99.90
24338;DHT22;12457;50.832;4.346;2024-02-26T09:14:17;6.10;99.90
24338;DHT22;12457;50.832;4.346;2024-02-26T09:16:42;6.10;99.90
24338;DHT22;12457;50.832;4.346;2024-02-26T09:19:08;6.10;99.90
24338;DHT22;12457;50.832;4.346;2024-02-26T09:21:33;6.10;99.90
24338;DHT22;12457;50.832;4.346;2024-02-26T09:23:59;6.10;99.90
24338;DHT22;12457;50.832;4.346;2024-02-26T09:26:25;6.10;99.90
24338;DHT22;12457;50.832;4.346;2024-02-26T09:28:52;6.10;99.90
24338;DHT22;12457;50.832;4.346;2024-02-26T09:31:18;6.10;99.90
24338;DHT22;12457;50.832;4.346;2024-02-26T09:33:43;6.10;99.90
24338;DHT22;12457;50.832;4.346;2024-02-26T09:36:09;6.10;99.90
24338;DHT22;12457;50.832;4.346;2024-02-26T09:38:36;6.10;99.90
24338;DHT22;12457;50.832;4.346;2024-02-26T09:41:04;6.10;99.90
24338;DHT22;12457;50.832;4.346;2024-02-26T09:43:35;6.10;99.90
24338;DHT22;12457;50.832;4.346;2024-02-26T09:46:01;6.10;99.90
24338;DHT22;12457;50.832;4.346;2024-02-26T09:48:27;6.20;99.90
24338;DHT22;12457;50.832;4.346;2024-02-26T09:50:53;6.20;99.90
24338;DHT22;12457;50.832;4.346;2024-02-26T09:53:21;6.10;99.90
24338;DHT22;12457;50.832;4.346;2024-02-26T09:55:47;6.10;99.90
24338;DHT22;12457;50.832;4.346;2024-02-26T09:58:13;6.10;99.90
24338;DHT22;12457;50.832;4.346;2024-02-26T10:00:48;6.10;99.90
24338;DHT22;12457;50.832;4.346;2024-02-26T10:03:15;6.10;99.90
24338;DHT22;12457;50.832;4.346;2024-02-26T10:05:42;6.00;99.90
24338;DHT22;12457;50.832;4.346;2024-02-26T10:08:08;6.10;99.90
24338;DHT22;12457;50.832;4.346;2024-02-26T10:10:36;6.10;99.90
24338;DHT22;12457;50.832;4.346;2024-02-26T10:13:03;6.10;99.90
24338;DHT22;12457;50.832;4.346;2024-02-26T10:15:35;6.10;99.90
24338;DHT22;12457;50.832;4.346;2024-02-26T10:18:04;6.10;99.90
24338;DHT22;12457;50.832;4.346;2024-02-26T10:20:40;6.20;99.90
24338;DHT22;12457;50.832;4.346;2024-02-26T10:23:05;6.20;99.90
24338;DHT22;12457;50.832;4.346;2024-02-26T10:25:32;6.10;99.90
24338;DHT22;12457;50.832;4.346;2024-02-26T10:28:02;6.20;99.90
24338;DHT22;12457;50.832;4.346;2024-02-26T10:30:28;6.20;99.90
24338;DHT22;12457;50.832;4.346;2024-02-26T10:32:54;6.10;99.90
24338;DHT22;12457;50.832;4.346;2024-02-26T10:35:25;6.10;99.90
24338;DHT22;12457;50.832;4.346;2024-02-26T10:37:51;6.10;99.90
24338;DHT22;12457;50.832;4.346;2024-02-26T10:40:18;6.00;99.90
24338;DHT22;12457;50.832;4.346;2024-02-26T10:42:44;6.10;99.90
24338;DHT22;12457;50.832;4.346;2024-02-26T10:45:11;6.20;99.90
24338;DHT22;12457;50.832;4.346;2024-02-26T10:47:37;6.10;99.90
24338;DHT22;12457;50.832;4.346;2024-02-26T10:50:04;6.00;99.90
24338;DHT22;12457;50.832;4.346;2024-02-26T10:52:35;6.00;99.90
24338;DHT22;12457;50.832;4.346;2024-02-26T10:55:04;6.00;99.90
24338;DHT22;12457;50.832;4.346;2024-02-26T10:57:37;6.00;99.90
24338;DHT22;12457;50.832;4.346;2024-02-26T11:00:05;6.00;99.90
24338;DHT22;12457;50.832;4.346;2024-02-26T11:02:33;6.00;99.90
24338;DHT22;12457;50.832;4.346;2024-02-26T11:05:02;6.00;99.90
24338;DHT22;12457;50.832;4.346;2024-02-26T11:07:36;6.00;99.90
24338;DHT22;12457;50.832;4.346;2024-02-26T11:10:07;6.10;99.90
24338;DHT22;12457;50.832;4.346;2024-02-26T11:12:34;6.10;99.90
24338;DHT22;12457;50.832;4.346;2024-02-26T11:15:04;6.10;99.90
24338;DHT22;12457;50.832;4.346;2024-02-26T11:17:30;6.10;99.90
24338;DHT22;12457;50.832;4.346;2024-02-26T11:19:58;6.00;99.90
24338;DHT22;12457;50.832;4.346;2024-02-26T11:22:24;6.00;99.90
24338;DHT22;12457;50.832;4.346;2024-02-26T11:24:55;5.90;99.90
24338;DHT22;12457;50.832;4.346;2024-02-26T11:27:26;6.00;99.90
24338;DHT22;12457;50.832;4.346;2024-02-26T11:29:56;6.00;99.90
24338;DHT22;12457;50.832;4.346;2024-02-26T11:32:26;5.90;99.90
24338;DHT22;12457;50.832;4.346;2024-02-26T11:34:53;5.80;99.90
24338;DHT22;12457;50.832;4.346;2024-02-26T11:37:19;5.80;99.90
24338;DHT22;12457;50.832;4.346;2024-02-26T11:39:46;5.80;99.90
24338;DHT22;12457;50.832;4.346;2024-02-26T11:42:14;5.90;99.90
24338;DHT22;12457;50.832;4.346;2024-02-26T11:44:41;5.90;99.90
24338;DHT22;12457;50.832;4.346;2024-02-26T11:47:13;5.90;99.90
24338;DHT22;12457;50.832;4.346;2024-02-26T11:49:39;5.90;99.90
24338;DHT22;12457;50.832;4.346;2024-02-26T11:52:13;5.80;99.90
24338;DHT22;12457;50.832;4.346;2024-02-26T11:54:40;5.80;99.90
24338;DHT22;12457;50.832;4.346;2024-02-26T11:57:21;5.80;99.90
24338;DHT22;12457;50.832;4.346;2024-02-26T11:59:48;5.90;99.90
24338;DHT22;12457;50.832;4.346;2024-02-26T12:02:37;6.00;99.90
24338;DHT22;12457;50.832;4.346;2024-02-26T12:05:14;6.00;99.90
24338;DHT22;12457;50.832;4.346;2024-02-26T12:07:49;6.10;99.90
24338;DHT22;12457;50.832;4.346;2024-02-26T12:10:25;6.00;99.90
24338;DHT22;12457;50.832;4.346;2024-02-26T12:12:58;6.00;99.90
24338;DHT22;12457;50.832;4.346;2024-02-26T12:15:31;6.00;99.90
24338;DHT22;12457;50.832;4.346;2024-02-26T12:17:58;5.90;99.90
24338;DHT22;12457;50.832;4.346;2024-02-26T12:20:25;6.00;99.90
24338;DHT22;12457;50.832;4.346;2024-02-26T12:22:52;6.00;99.90
24338;DHT22;12457;50.832;4.346;2024-02-26T12:25:26;6.00;99.90
24338;DHT22;12457;50.832;4.346;2024-02-26T12:27:52;6.00;99.90
24338;DHT22;12457;50.832;4.346;2024-02-26T12:30:18;6.00;99.90
24338;DHT22;12457;50.832;4.346;2024-02-26T12:32:51;6.10;99.90
24338;DHT22;12457;50.832;4.346;2024-02-26T12:35:17;6.10;99.90
24338;DHT22;12457;50.832;4.346;2024-02-26T12:38:02;6.20;99.90
24338;DHT22;12457;50.832;4.346;2024-02-26T12:40:29;6.10;99.90
24338;DHT22;12457;50.832;4.346;2024-02-26T12:42:55;6.20;99.90
24338;DHT22;12457;50.832;4.346;2024-02-26T12:45:21;6.30;99.90
24338;DHT22;12457;50.832;4.346;2024-02-26T12:47:47;6.30;99.90
24338;DHT22;12457;50.832;4.346;2024-02-26T12:50:13;6.10;99.90
24338;DHT22;12457;50.832;4.346;2024-02-26T12:52:43;6.20;99.90
24338;DHT22;12457;50.832;4.346;2024-02-26T12:55:09;6.30;99.90
24338;DHT22;12457;50.832;4.346;2024-02-26T12:57:40;6.20;99.90
24338;DHT22;12457;50.832;4.346;2024-02-26T13:00:12;6.10;99.90
24338;DHT22;12457;50.832;4.346;2024-02-26T13:02:39;6.20;99.90
24338;DHT22;12457;50.832;4.346;2024-02-26T13:05:06;6.20;99.90
24338;DHT22;12457;50.832;4.346;2024-02-26T13:07:34;6.00;99.90
24338;DHT22;12457;50.832;4.346;2024-02-26T13:10:00;6.00;99.90
24338;DHT22;12457;50.832;4.346;2024-02-26T13:12:26;6.00;99.90
24338;DHT22;12457;50.832;4.346;2024-02-26T13:15:05;6.10;99.90
24338;DHT22;12457;50.832;4.346;2024-02-26T13:17:34;6.00;99.90
24338;DHT22;12457;50.832;4.346;2024-02-26T13:20:00;6.00;99.90
24338;DHT22;12457;50.832;4.346;2024-02-26T13:22:30;5.90;99.90
24338;DHT22;12457;50.832;4.346;2024-02-26T13:24:59;5.90;99.90
24338;DHT22;12457;50.832;4.346;2024-02-26T13:27:26;5.80;99.90
24338;DHT22;12457;50.832;4.346;2024-02-26T13:30:10;5.80;99.90
24338;DHT22;12457;50.832;4.346;2024-02-26T13:32:37;5.70;99.90
24338;DHT22;12457;50.832;4.346;2024-02-26T13:35:12;5.70;99.90
24338;DHT22;12457;50.832;4.346;2024-02-26T13:37:39;5.70;99.90
24338;DHT22;12457;50.832;4.346;2024-02-26T13:40:09;5.70;99.90
24338;DHT22;12457;50.832;4.346;2024-02-26T13:42:36;5.70;99.90
24338;DHT22;12457;50.832;4.346;2024-02-26T13:45:04;5.70;99.90
24338;DHT22;12457;50.832;4.346;2024-02-26T13:47:34;5.70;99.90
24338;DHT22;12457;50.832;4.346;2024-02-26T13:50:00;5.70;99.90
24338;DHT22;12457;50.832;4.346;2024-02-26T13:52:36;5.70;99.90
24338;DHT22;12457;50.832;4.346;2024-02-26T13:55:01;5.70;99.90
24338;DHT22;12457;50.832;4.346;2024-02-26T13:57:28;5.70;99.90
24338;DHT22;12457;50.832;4.346;2024-02-26T13:59:54;5.70;99.90
24338;DHT22;12457;50.832;4.346;2024-02-26T14:02:20;5.70;99.90
24338;DHT22;12457;50.832;4.346;2024-02-26T14:04:46;5.80;99.90
24338;DHT22;12457;50.832;4.346;2024-02-26T14:07:18;5.80;99.90
24338;DHT22;12457;50.832;4.346;2024-02-26T14:09:44;5.80;99.90
24338;DHT22;12457;50.832;4.346;2024-02-26T14:12:12;5.80;99.90
24338;DHT22;12457;50.832;4.346;2024-02-26T14:14:40;5.80;99.90
24338;DHT22;12457;50.832;4.346;2024-02-26T14:17:07;5.80;99.90
24338;DHT22;12457;50.832;4.346;2024-02-26T14:19:33;5.80;99.90
24338;DHT22;12457;50.832;4.346;2024-02-26T14:21:59;5.80;99.90
24338;DHT22;12457;50.832;4.346;2024-02-26T14:24:24;5.90;99.90
24338;DHT22;12457;50.832;4.346;2024-02-26T14:26:50;5.90;99.90
24338;DHT22;12457;50.832;4.346;2024-02-26T14:29:16;5.90;99.90
24338;DHT22;12457;50.832;4.346;2024-02-26T14:31:41;6.00;99.90
24338;DHT22;12457;50.832;4.346;2024-02-26T14:34:07;6.00;99.90
24338;DHT22;12457;50.832;4.346;2024-02-26T14:36:34;6.10;99.90
24338;DHT22;12457;50.832;4.346;2024-02-26T14:39:03;6.10;99.90
24338;DHT22;12457;50.832;4.346;2024-02-26T14:41:29;6.10;99.90
24338;DHT22;12457;50.832;4.346;2024-02-26T14:43:55;6.10;99.90
24338;DHT22;12457;50.832;4.346;2024-02-26T14:46:20;6.10;99.90
24338;DHT22;12457;50.832;4.346;2024-02-26T14:48:46;6.10;99.90
24338;DHT22;12457;50.832;4.346;2024-02-26T14:51:12;6.10;99.90
24338;DHT22;12457;50.832;4.346;2024-02-26T14:53:37;6.10;99.90
24338;DHT22;12457;50.832;4.346;2024-02-26T14:56:03;6.10;99.90
24338;DHT22;12457;50.832;4.346;2024-02-26T14:58:29;6.10;99.90
24338;DHT22;12457;50.832;4.346;2024-02-26T15:00:55;6.10;99.90
24338;DHT22;12457;50.832;4.346;2024-02-26T15:03:20;6.10;99.90
24338;DHT22;12457;50.832;4.346;2024-02-26T15:05:46;6.10;99.90
24338;DHT22;12457;50.832;4.346;2024-02-26T15:08:12;6.10;99.90
24338;DHT22;12457;50.832;4.346;2024-02-26T15:10:40;6.10;99.90
24338;DHT22;12457;50.832;4.346;2024-02-26T15:13:12;6.10;99.90
24338;DHT22;12457;50.832;4.346;2024-02-26T15:15:38;6.10;99.90
24338;DHT22;12457;50.832;4.346;2024-02-26T15:18:06;6.10;99.90
24338;DHT22;12457;50.832;4.346;2024-02-26T15:20:32;6.00;99.90
24338;DHT22;12457;50.832;4.346;2024-02-26T15:23:03;6.10;99.90
24338;DHT22;12457;50.832;4.346;2024-02-26T15:25:28;6.00;99.90
24338;DHT22;12457;50.832;4.346;2024-02-26T15:27:54;6.00;99.90
24338;DHT22;12457;50.832;4.346;2024-02-26T15:30:19;6.00;99.90
24338;DHT22;12457;50.832;4.346;2024-02-26T15:32:46;6.00;99.90
24338;DHT22;12457;50.832;4.346;2024-02-26T15:35:11;5.90;99.90
24338;DHT22;12457;50.832;4.346;2024-02-26T15:37:37;5.90;99.90
24338;DHT22;12457;50.832;4.346;2024-02-26T15:40:03;5.90;99.90
24338;DHT22;12457;50.832;4.346;2024-02-26T15:42:32;5.90;99.90
24338;DHT22;12457;50.832;4.346;2024-02-26T15:44:58;5.90;99.90
24338;DHT22;12457;50.832;4.346;2024-02-26T15:47:24;5.90;99.90